Terminal Aerodrome Forecast
Issued by NWS Austin/San Antonio, TX

Home | Current Version | Previous Version | Text Only | Print | Product List | Glossary On
Versions: 1 2 3 4 5 6 7 8 9 10 11 12 13 14
000
FTUS44 KEWX 030523
TAFDRT
TAF
KDRT 030523Z 0306/0406 12009KT P6SM FEW250
     FM031100 11007KT 6SM BR BKN012
     FM031500 14012KT P6SM FEW050 SCT250=

USA.gov is the U.S. government's official web portal to all federal, state and local government web resources and services.